SIK655 LIML-LIEE
Flight info
| Callsign | SIK655 |
|---|---|
| Flight time | 1h 6m |
| Altitude | 31000 |
| Route | ITCAP DCT OTMUV DCT UNITA DCT ERTEV DCT TORTU DCT OKROK DCT AJO DCT CORSI DCT UPDUT DCT INDUM DCT MINKA DCT ORVEX DCT BOLOT M858 RAMEN M732 KOVAS |
| Aircraft | B738/M-SDE2E3FGHIRWXY/LB1 |
Departure
| Time | 2026-05-05 18:20 |
|---|---|
| Airport | Milano Linate Airport (LIML) |
Arrival
| Time | 2026-05-05 19:27 |
|---|---|
| Airport | Cagliari Elmas Airport (LIEE) |
| Time | Latitude | Longitude | Altitude | Speed | Heading |
|---|---|---|---|---|---|
| 2026-05-05 18:17 | 45.44224 | 9.28008 | 353 ft | 21 kts | 175° |
| 2026-05-05 18:18 | 45.44079 | 9.28025 | 350 ft | 21 kts | 175° |
| 2026-05-05 18:18 | 45.43914 | 9.28045 | 349 ft | 27 kts | 175° |
| 2026-05-05 18:18 | 45.43720 | 9.28065 | 349 ft | 24 kts | 176° |
| 2026-05-05 18:18 | 45.43619 | 9.28075 | 349 ft | 14 kts | 176° |
| 2026-05-05 18:19 | 45.43504 | 9.28083 | 351 ft | 18 kts | 185° |
| 2026-05-05 18:19 | 45.43446 | 9.27956 | 348 ft | 17 kts | 271° |
| 2026-05-05 18:19 | 45.43482 | 9.27818 | 351 ft | 17 kts | 350° |
| 2026-05-05 18:19 | 45.43611 | 9.27805 | 351 ft | 27 kts | 355° |
| 2026-05-05 18:20 | 45.44053 | 9.27756 | 351 ft | 100 kts | 356° |
| 2026-05-05 18:20 | 45.44969 | 9.27660 | 363 ft | 161 kts | 355° |
| 2026-05-05 18:20 | 45.46136 | 9.27516 | 992 ft | 167 kts | 357° |
| 2026-05-05 18:20 | 45.47275 | 9.27888 | 1601 ft | 181 kts | 40° |
| 2026-05-05 18:21 | 45.47892 | 9.29376 | 2349 ft | 180 kts | 83° |
| 2026-05-05 18:21 | 45.47703 | 9.31252 | 2541 ft | 212 kts | 116° |
| 2026-05-05 18:21 | 45.46741 | 9.32945 | 2889 ft | 229 kts | 135° |
| 2026-05-05 18:21 | 45.45560 | 9.34653 | 3178 ft | 254 kts | 134° |
| 2026-05-05 18:22 | 45.44162 | 9.36246 | 3893 ft | 260 kts | 152° |
| 2026-05-05 18:22 | 45.42559 | 9.37472 | 4784 ft | 263 kts | 153° |
| 2026-05-05 18:22 | 45.40954 | 9.38739 | 5686 ft | 264 kts | 152° |
| 2026-05-05 18:22 | 45.39307 | 9.39901 | 6528 ft | 264 kts | 168° |
| 2026-05-05 18:23 | 45.37489 | 9.39981 | 7325 ft | 263 kts | 185° |
| 2026-05-05 18:23 | 45.35647 | 9.40225 | 8091 ft | 271 kts | 166° |
| 2026-05-05 18:23 | 45.33901 | 9.41297 | 8884 ft | 277 kts | 151° |
| 2026-05-05 18:23 | 45.32315 | 9.42905 | 9688 ft | 283 kts | 144° |
| 2026-05-05 18:24 | 45.30770 | 9.44692 | 10337 ft | 292 kts | 143° |
| 2026-05-05 18:24 | 45.29140 | 9.46606 | 10525 ft | 317 kts | 143° |
| 2026-05-05 18:24 | 45.27377 | 9.48662 | 10709 ft | 340 kts | 143° |
| 2026-05-05 18:24 | 45.25514 | 9.50809 | 10985 ft | 357 kts | 143° |
| 2026-05-05 18:25 | 45.23526 | 9.53088 | 11575 ft | 365 kts | 144° |
| 2026-05-05 18:25 | 45.22886 | 9.53820 | 11787 ft | 366 kts | 144° |
| 2026-05-05 18:25 | 45.19124 | 9.56366 | 12928 ft | 363 kts | 175° |
| 2026-05-05 18:25 | 45.16615 | 9.56296 | 13649 ft | 362 kts | 188° |
| 2026-05-05 18:26 | 45.14082 | 9.56573 | 14236 ft | 375 kts | 165° |
| 2026-05-05 18:26 | 45.11756 | 9.58320 | 14932 ft | 381 kts | 152° |
| 2026-05-05 18:26 | 45.09337 | 9.59726 | 15550 ft | 375 kts | 175° |
| 2026-05-05 18:26 | 45.06777 | 9.59544 | 16182 ft | 368 kts | 197° |
| 2026-05-05 18:27 | 45.04417 | 9.58196 | 16875 ft | 365 kts | 211° |
| 2026-05-05 18:27 | 45.02214 | 9.56385 | 17516 ft | 368 kts | 212° |
| 2026-05-05 18:27 | 45.00007 | 9.54517 | 18125 ft | 371 kts | 212° |
| 2026-05-05 18:27 | 44.97805 | 9.52672 | 18673 ft | 373 kts | 212° |
| 2026-05-05 18:28 | 44.93294 | 9.48987 | 19809 ft | 376 kts | 211° |
| 2026-05-05 18:28 | 44.91017 | 9.47147 | 20358 ft | 378 kts | 211° |
| 2026-05-05 18:28 | 44.88727 | 9.45299 | 20895 ft | 380 kts | 211° |
| 2026-05-05 18:29 | 44.86424 | 9.43441 | 21415 ft | 382 kts | 211° |
| 2026-05-05 18:29 | 44.84108 | 9.41572 | 21942 ft | 384 kts | 211° |
| 2026-05-05 18:29 | 44.81786 | 9.39700 | 22440 ft | 386 kts | 211° |
| 2026-05-05 18:29 | 44.79437 | 9.37809 | 22884 ft | 389 kts | 211° |
| 2026-05-05 18:30 | 44.77089 | 9.35920 | 23437 ft | 390 kts | 211° |
| 2026-05-05 18:30 | 44.74732 | 9.34024 | 23847 ft | 392 kts | 211° |
| 2026-05-05 18:30 | 44.72358 | 9.32116 | 24216 ft | 394 kts | 211° |
| 2026-05-05 18:30 | 44.69973 | 9.30202 | 24642 ft | 395 kts | 212° |
| 2026-05-05 18:31 | 44.67614 | 9.28308 | 24990 ft | 395 kts | 212° |
| 2026-05-05 18:31 | 44.65223 | 9.26392 | 25367 ft | 397 kts | 212° |
| 2026-05-05 18:31 | 44.62804 | 9.24457 | 25626 ft | 401 kts | 212° |
| 2026-05-05 18:31 | 44.60388 | 9.22528 | 26173 ft | 399 kts | 212° |
| 2026-05-05 18:32 | 44.57977 | 9.20603 | 26555 ft | 399 kts | 212° |
| 2026-05-05 18:32 | 44.55554 | 9.18668 | 26840 ft | 403 kts | 212° |
| 2026-05-05 18:32 | 44.53110 | 9.16719 | 27211 ft | 403 kts | 212° |
| 2026-05-05 18:32 | 44.50680 | 9.14784 | 27817 ft | 398 kts | 213° |
| 2026-05-05 18:33 | 44.49094 | 9.13522 | 28266 ft | 394 kts | 213° |
| 2026-05-05 18:33 | 44.46714 | 9.11630 | 28846 ft | 391 kts | 213° |
| 2026-05-05 18:33 | 44.44349 | 9.09758 | 29306 ft | 390 kts | 212° |
| 2026-05-05 18:33 | 44.41833 | 9.08283 | 29728 ft | 397 kts | 200° |
| 2026-05-05 18:34 | 44.39083 | 9.07647 | 30189 ft | 403 kts | 192° |
| 2026-05-05 18:34 | 44.36290 | 9.07335 | 30620 ft | 402 kts | 191° |
| 2026-05-05 18:34 | 44.33504 | 9.07069 | 30947 ft | 401 kts | 191° |
| 2026-05-05 18:34 | 44.30709 | 9.06788 | 30937 ft | 403 kts | 192° |
| 2026-05-05 18:35 | 44.25139 | 9.06168 | 30952 ft | 399 kts | 192° |
| 2026-05-05 18:35 | 44.19641 | 9.05520 | 30955 ft | 397 kts | 192° |
| 2026-05-05 18:36 | 44.14125 | 9.04860 | 30952 ft | 396 kts | 192° |
| 2026-05-05 18:36 | 44.08631 | 9.04200 | 30946 ft | 396 kts | 192° |
| 2026-05-05 18:37 | 44.03130 | 9.03541 | 30949 ft | 397 kts | 192° |
| 2026-05-05 18:37 | 43.97610 | 9.02882 | 30949 ft | 398 kts | 192° |
| 2026-05-05 18:38 | 43.92142 | 9.02071 | 30949 ft | 396 kts | 195° |
| 2026-05-05 18:38 | 43.86692 | 9.00854 | 30945 ft | 397 kts | 196° |
| 2026-05-05 18:39 | 43.81222 | 8.99615 | 30944 ft | 399 kts | 196° |
| 2026-05-05 18:39 | 43.75734 | 8.98404 | 30942 ft | 400 kts | 196° |
| 2026-05-05 18:40 | 43.70225 | 8.97201 | 30949 ft | 401 kts | 196° |
| 2026-05-05 18:40 | 43.64717 | 8.96007 | 30947 ft | 402 kts | 194° |
| 2026-05-05 18:41 | 43.59054 | 8.95734 | 30948 ft | 409 kts | 187° |
| 2026-05-05 18:41 | 43.53393 | 8.95786 | 30948 ft | 409 kts | 187° |
| 2026-05-05 18:42 | 43.47708 | 8.95802 | 30942 ft | 408 kts | 188° |
| 2026-05-05 18:42 | 43.42017 | 8.95801 | 30946 ft | 408 kts | 188° |
| 2026-05-05 18:43 | 43.36369 | 8.95588 | 30954 ft | 403 kts | 192° |
| 2026-05-05 18:43 | 43.30777 | 8.94921 | 30947 ft | 403 kts | 192° |
| 2026-05-05 18:44 | 43.25227 | 8.94238 | 30950 ft | 403 kts | 192° |
| 2026-05-05 18:44 | 43.19638 | 8.93574 | 30952 ft | 404 kts | 192° |
| 2026-05-05 18:45 | 43.14039 | 8.92923 | 30946 ft | 404 kts | 192° |
| 2026-05-05 18:45 | 43.08429 | 8.92276 | 30946 ft | 405 kts | 192° |
| 2026-05-05 18:46 | 43.02805 | 8.91627 | 30947 ft | 405 kts | 192° |
| 2026-05-05 18:46 | 42.97172 | 8.90979 | 30948 ft | 406 kts | 192° |
| 2026-05-05 18:47 | 42.91537 | 8.90331 | 30943 ft | 406 kts | 192° |
| 2026-05-05 18:47 | 42.85933 | 8.89688 | 30936 ft | 407 kts | 191° |
| 2026-05-05 18:48 | 42.80281 | 8.89041 | 30933 ft | 407 kts | 191° |
| 2026-05-05 18:48 | 42.74635 | 8.88399 | 30934 ft | 407 kts | 191° |
| 2026-05-05 18:49 | 42.68984 | 8.87759 | 30933 ft | 408 kts | 191° |
| 2026-05-05 18:49 | 42.63344 | 8.87121 | 30939 ft | 408 kts | 191° |
| 2026-05-05 18:50 | 42.57676 | 8.86481 | 30933 ft | 409 kts | 191° |
| 2026-05-05 18:50 | 42.51989 | 8.85839 | 30930 ft | 410 kts | 191° |
| 2026-05-05 18:51 | 42.46324 | 8.85200 | 30946 ft | 411 kts | 191° |
| 2026-05-05 18:51 | 42.40616 | 8.84554 | 30952 ft | 411 kts | 191° |
| 2026-05-05 18:52 | 42.34918 | 8.83915 | 30923 ft | 410 kts | 191° |
| 2026-05-05 18:52 | 42.29225 | 8.83282 | 30943 ft | 411 kts | 191° |
| 2026-05-05 18:53 | 42.23523 | 8.82646 | 30947 ft | 411 kts | 191° |
| 2026-05-05 18:53 | 42.17825 | 8.82011 | 30950 ft | 410 kts | 191° |
| 2026-05-05 18:54 | 42.12145 | 8.81381 | 30951 ft | 410 kts | 191° |
| 2026-05-05 18:54 | 42.06466 | 8.80749 | 30967 ft | 410 kts | 191° |
| 2026-05-05 18:55 | 42.00812 | 8.80120 | 30963 ft | 409 kts | 191° |
| 2026-05-05 18:55 | 41.95141 | 8.79492 | 30956 ft | 409 kts | 191° |
| 2026-05-05 18:56 | 41.89469 | 8.78864 | 30958 ft | 409 kts | 191° |
| 2026-05-05 18:56 | 41.83805 | 8.78239 | 30962 ft | 409 kts | 191° |
| 2026-05-05 18:57 | 41.78149 | 8.77618 | 30967 ft | 410 kts | 191° |
| 2026-05-05 18:57 | 41.72387 | 8.77836 | 30957 ft | 417 kts | 183° |
| 2026-05-05 18:58 | 41.66584 | 8.78373 | 30949 ft | 418 kts | 184° |
| 2026-05-05 18:58 | 41.60783 | 8.78883 | 30953 ft | 417 kts | 184° |
| 2026-05-05 18:59 | 41.54978 | 8.79376 | 30955 ft | 418 kts | 184° |
| 2026-05-05 18:59 | 41.49205 | 8.79862 | 30952 ft | 417 kts | 184° |
| 2026-05-05 19:00 | 41.43420 | 8.80349 | 30960 ft | 417 kts | 184° |
| 2026-05-05 19:00 | 41.37625 | 8.80837 | 30948 ft | 417 kts | 184° |
| 2026-05-05 19:01 | 41.31827 | 8.81772 | 30943 ft | 427 kts | 173° |
| 2026-05-05 19:01 | 41.26132 | 8.84208 | 30932 ft | 426 kts | 174° |
| 2026-05-05 19:02 | 41.20376 | 8.84971 | 30953 ft | 411 kts | 187° |
| 2026-05-05 19:02 | 41.14686 | 8.84952 | 30938 ft | 411 kts | 187° |
| 2026-05-05 19:03 | 41.08958 | 8.84978 | 30943 ft | 412 kts | 187° |
| 2026-05-05 19:03 | 41.03251 | 8.85044 | 30931 ft | 403 kts | 187° |
| 2026-05-05 19:04 | 40.97697 | 8.85108 | 30948 ft | 398 kts | 187° |
| 2026-05-05 19:04 | 40.92128 | 8.85263 | 30620 ft | 401 kts | 186° |
| 2026-05-05 19:05 | 40.89396 | 8.85362 | 30255 ft | 395 kts | 186° |
| 2026-05-05 19:05 | 40.86657 | 8.85455 | 29826 ft | 391 kts | 186° |
| 2026-05-05 19:05 | 40.83945 | 8.85542 | 29361 ft | 387 kts | 186° |
| 2026-05-05 19:05 | 40.81279 | 8.85628 | 28926 ft | 383 kts | 185° |
| 2026-05-05 19:06 | 40.78621 | 8.85801 | 28498 ft | 380 kts | 184° |
| 2026-05-05 19:06 | 40.75990 | 8.86027 | 28055 ft | 377 kts | 184° |
| 2026-05-05 19:06 | 40.73385 | 8.86253 | 27634 ft | 374 kts | 184° |
| 2026-05-05 19:06 | 40.70793 | 8.86463 | 27199 ft | 371 kts | 184° |
| 2026-05-05 19:07 | 40.68228 | 8.86664 | 26783 ft | 368 kts | 184° |
| 2026-05-05 19:07 | 40.65674 | 8.86867 | 26366 ft | 366 kts | 183° |
| 2026-05-05 19:07 | 40.63137 | 8.87081 | 25958 ft | 364 kts | 183° |
| 2026-05-05 19:07 | 40.60617 | 8.87297 | 25549 ft | 362 kts | 183° |
| 2026-05-05 19:08 | 40.58112 | 8.87511 | 25140 ft | 360 kts | 183° |
| 2026-05-05 19:08 | 40.55623 | 8.87723 | 24740 ft | 358 kts | 183° |
| 2026-05-05 19:08 | 40.53173 | 8.87930 | 24356 ft | 356 kts | 183° |
| 2026-05-05 19:08 | 40.50669 | 8.88142 | 23948 ft | 355 kts | 183° |
| 2026-05-05 19:09 | 40.48210 | 8.88349 | 23527 ft | 354 kts | 182° |
| 2026-05-05 19:09 | 40.45781 | 8.88553 | 23070 ft | 353 kts | 182° |
| 2026-05-05 19:09 | 40.43331 | 8.88759 | 22641 ft | 351 kts | 182° |
| 2026-05-05 19:09 | 40.40901 | 8.88964 | 22226 ft | 349 kts | 182° |
| 2026-05-05 19:10 | 40.38482 | 8.89167 | 21827 ft | 347 kts | 182° |
| 2026-05-05 19:10 | 40.36079 | 8.89370 | 21424 ft | 345 kts | 182° |
| 2026-05-05 19:10 | 40.33694 | 8.89568 | 21029 ft | 342 kts | 181° |
| 2026-05-05 19:10 | 40.31319 | 8.89763 | 20655 ft | 341 kts | 181° |
| 2026-05-05 19:11 | 40.28954 | 8.89957 | 20254 ft | 339 kts | 181° |
| 2026-05-05 19:11 | 40.26637 | 8.90146 | 19887 ft | 337 kts | 181° |
| 2026-05-05 19:11 | 40.24299 | 8.90336 | 19506 ft | 336 kts | 181° |
| 2026-05-05 19:11 | 40.21971 | 8.90525 | 19128 ft | 335 kts | 181° |
| 2026-05-05 19:12 | 40.19644 | 8.90715 | 18748 ft | 334 kts | 180° |
| 2026-05-05 19:12 | 40.17326 | 8.90903 | 18361 ft | 334 kts | 180° |
| 2026-05-05 19:12 | 40.15009 | 8.91092 | 17940 ft | 333 kts | 180° |
| 2026-05-05 19:12 | 40.12693 | 8.91281 | 17528 ft | 332 kts | 180° |
| 2026-05-05 19:13 | 40.10392 | 8.91468 | 17139 ft | 330 kts | 180° |
| 2026-05-05 19:13 | 40.08107 | 8.91655 | 16753 ft | 328 kts | 180° |
| 2026-05-05 19:13 | 40.05836 | 8.91840 | 16385 ft | 326 kts | 180° |
| 2026-05-05 19:13 | 40.03571 | 8.92024 | 16012 ft | 325 kts | 180° |
| 2026-05-05 19:14 | 40.01320 | 8.92207 | 15638 ft | 323 kts | 180° |
| 2026-05-05 19:14 | 39.99105 | 8.92387 | 15273 ft | 322 kts | 180° |
| 2026-05-05 19:14 | 39.96874 | 8.92568 | 14914 ft | 321 kts | 180° |
| 2026-05-05 19:14 | 39.94650 | 8.92748 | 14544 ft | 320 kts | 180° |
| 2026-05-05 19:15 | 39.92435 | 8.92927 | 14180 ft | 318 kts | 180° |
| 2026-05-05 19:15 | 39.90228 | 8.93106 | 13821 ft | 317 kts | 180° |
| 2026-05-05 19:15 | 39.88022 | 8.93285 | 13404 ft | 316 kts | 180° |
| 2026-05-05 19:15 | 39.85829 | 8.93463 | 13025 ft | 315 kts | 180° |
| 2026-05-05 19:16 | 39.83652 | 8.93638 | 12644 ft | 313 kts | 180° |
| 2026-05-05 19:16 | 39.81481 | 8.93903 | 12265 ft | 314 kts | 172° |
| 2026-05-05 19:16 | 39.79387 | 8.94773 | 11903 ft | 317 kts | 159° |
| 2026-05-05 19:16 | 39.77483 | 8.96223 | 11547 ft | 318 kts | 151° |
| 2026-05-05 19:17 | 39.75641 | 8.97795 | 11199 ft | 316 kts | 150° |
| 2026-05-05 19:17 | 39.73812 | 8.99368 | 10838 ft | 314 kts | 150° |
| 2026-05-05 19:17 | 39.71989 | 9.00919 | 10518 ft | 311 kts | 150° |
| 2026-05-05 19:17 | 39.70202 | 9.02426 | 10394 ft | 301 kts | 151° |
| 2026-05-05 19:18 | 39.68478 | 9.03870 | 10247 ft | 289 kts | 151° |
| 2026-05-05 19:18 | 39.66845 | 9.05234 | 10115 ft | 276 kts | 152° |
| 2026-05-05 19:18 | 39.65255 | 9.06536 | 9996 ft | 263 kts | 157° |
| 2026-05-05 19:18 | 39.63528 | 9.07159 | 9627 ft | 255 kts | 180° |
| 2026-05-05 19:19 | 39.61752 | 9.07200 | 9176 ft | 256 kts | 183° |
| 2026-05-05 19:19 | 39.60014 | 9.07216 | 8997 ft | 246 kts | 182° |
| 2026-05-05 19:19 | 39.58285 | 9.07240 | 8379 ft | 256 kts | 182° |
| 2026-05-05 19:19 | 39.56485 | 9.07270 | 7842 ft | 262 kts | 182° |
| 2026-05-05 19:20 | 39.54668 | 9.07303 | 7414 ft | 262 kts | 182° |
| 2026-05-05 19:20 | 39.52938 | 9.06915 | 7201 ft | 248 kts | 202° |
| 2026-05-05 19:20 | 39.51446 | 9.05740 | 6645 ft | 251 kts | 217° |
| 2026-05-05 19:20 | 39.50036 | 9.04390 | 6177 ft | 251 kts | 217° |
| 2026-05-05 19:21 | 39.48639 | 9.03061 | 5856 ft | 244 kts | 217° |
| 2026-05-05 19:21 | 39.47328 | 9.01818 | 5750 ft | 225 kts | 217° |
| 2026-05-05 19:21 | 39.46095 | 9.00651 | 5463 ft | 216 kts | 217° |
| 2026-05-05 19:21 | 39.44890 | 8.99512 | 5129 ft | 215 kts | 217° |
| 2026-05-05 19:22 | 39.43678 | 8.98369 | 4741 ft | 217 kts | 216° |
| 2026-05-05 19:22 | 39.42451 | 8.97214 | 4308 ft | 219 kts | 216° |
| 2026-05-05 19:22 | 39.41628 | 8.96439 | 4033 ft | 221 kts | 216° |
| 2026-05-05 19:22 | 39.40391 | 8.95276 | 3693 ft | 220 kts | 216° |
| 2026-05-05 19:23 | 39.38758 | 8.93744 | 3259 ft | 217 kts | 216° |
| 2026-05-05 19:23 | 39.37410 | 8.92940 | 2927 ft | 214 kts | 187° |
| 2026-05-05 19:23 | 39.36430 | 8.93003 | 2743 ft | 211 kts | 167° |
| 2026-05-05 19:23 | 39.35129 | 8.93814 | 2454 ft | 209 kts | 144° |
| 2026-05-05 19:24 | 39.34031 | 8.95023 | 2122 ft | 206 kts | 139° |
| 2026-05-05 19:24 | 39.32984 | 8.96254 | 1826 ft | 200 kts | 139° |
| 2026-05-05 19:24 | 39.31984 | 8.97446 | 1527 ft | 190 kts | 138° |
| 2026-05-05 19:24 | 39.31033 | 8.98570 | 1292 ft | 179 kts | 138° |
| 2026-05-05 19:25 | 39.30153 | 8.99602 | 1091 ft | 163 kts | 139° |
| 2026-05-05 19:25 | 39.29343 | 9.00546 | 860 ft | 150 kts | 139° |
| 2026-05-05 19:25 | 39.28609 | 9.01398 | 700 ft | 136 kts | 137° |
| 2026-05-05 19:25 | 39.27927 | 9.02230 | 491 ft | 137 kts | 137° |
| 2026-05-05 19:26 | 39.27194 | 9.03070 | 345 ft | 143 kts | 139° |
| 2026-05-05 19:26 | 39.26463 | 9.03910 | 137 ft | 138 kts | 140° |
| 2026-05-05 19:26 | 39.25765 | 9.04718 | 21 ft | 128 kts | 137° |
| 2026-05-05 19:26 | 39.25235 | 9.05330 | 16 ft | 73 kts | 138° |
| 2026-05-05 19:27 | 39.25048 | 9.05567 | 17 ft | 18 kts | 96° |
| 2026-05-05 19:27 | 39.25098 | 9.05710 | 16 ft | 17 kts | 60° |
| 2026-05-05 19:27 | 39.25152 | 9.05831 | 16 ft | 8 kts | 60° |
| 2026-05-05 19:27 | 39.25182 | 9.05842 | 16 ft | 5 kts | 330° |
| 2026-05-05 19:28 | 39.25228 | 9.05795 | 16 ft | 12 kts | 321° |
| 2026-05-05 19:28 | 39.25295 | 9.05720 | 16 ft | 14 kts | 314° |
| 2026-05-05 19:28 | 39.25373 | 9.05736 | 16 ft | 14 kts | 51° |
| 2026-05-05 19:28 | 39.25420 | 9.05838 | 16 ft | 11 kts | 98° |
| 2026-05-05 19:29 | 39.25383 | 9.05897 | 16 ft | 4 kts | 140° |
| 2026-05-05 19:29 | 39.25383 | 9.05898 | 16 ft | 0 kts | 140° |